Terminal Aerodrome Forecast
Issued by NWS

Home | Current Version | Previous Version | Text Only | Print | Product List | Glossary Off
Versions: 1 2 3 4 5 6 7 8 9 10 11 12 13 14 15 16 17 18 19 20 21

611
FTUS43 KGRB 290636 AAA
TAFATW
TAF AMD
KATW 290636Z 2907/3006 VRB03KT 6SM BR SCT030 SCT200
      TEMPO 2907/2910 1SM BR BKN002
     FM291000 18004KT 6SM BR SCT040 BKN150
     FM291400 18007KT P6SM BKN025
     FM291700 17008KT P6SM SCT035 BKN250
     FM292300 19004KT P6SM BKN250=

USA.gov is the U.S. government's official web portal to all federal, state and local government web resources and services.